Terminal Aerodrome Forecast
Issued by NWS Albuquerque, NM

Home | Current Version | Previous Version | Text Only | Print | Product List | Glossary On
Versions: 1 2 3 4 5 6 7 8 9 10 11 12 13 14 15 16 17 18 19 20 21 22 23 24 25 26 27 28 29 30 31 32
000
FTUS45 KABQ 151134
TAFABQ
TAF
KABQ 151134Z 1512/1612 VRB05KT P6SM BKN090
     FM151500 21005KT 6SM -RA OVC040
     FM151800 11007KT P6SM BKN040
      TEMPO 1522/1602 5SM -TSRA OVC030CB
     FM160900 07006KT 6SM -RA BR OVC025=

USA.gov is the U.S. government's official web portal to all federal, state and local government web resources and services.